Time;durP1;ratioP1;P1;durP2;ratioP2;P2;SDS_P1;SDS_P2;PMS_P1;PMS_P2;Temp;Humidity;BMP_temperature;BMP_pressure;BME280_temperature;BME280_humidity;BME280_pressure;Samples;Min_cycle;Max_cycle;Signal;HPM_P1;HPM_P2
2024/03/03 00:02:15;;;;;;;;;;;22.90;42.30;;;;;;5055669;28;19929;-64
2024/03/03 00:04:42;;;;;;;;;;;23.00;42.40;;;;;;5055819;28;19925;-63
2024/03/03 00:07:09;;;;;;;;;;;22.90;42.30;;;;;;5055547;28;19925;-65
2024/03/03 00:09:36;;;;;;;;;;;22.90;42.30;;;;;;5055808;28;20015;-64
2024/03/03 00:12:03;;;;;;;;;;;23.00;42.40;;;;;;5055417;28;19994;-64
2024/03/03 00:14:30;;;;;;;;;;;23.00;42.40;;;;;;5055255;28;20011;-63
2024/03/03 00:16:57;;;;;;;;;;;22.90;42.30;;;;;;5055508;28;19979;-63
2024/03/03 00:19:24;;;;;;;;;;;22.90;42.90;;;;;;5055537;28;20341;-63
2024/03/03 00:21:51;;;;;;;;;;;22.90;42.30;;;;;;5054879;28;19924;-64
2024/03/03 00:24:18;;;;;;;;;;;22.90;42.30;;;;;;5054979;28;20374;-63
2024/03/03 00:26:45;;;;;;;;;;;22.90;42.30;;;;;;5053766;28;19963;-63
2024/03/03 00:29:12;;;;;;;;;;;23.00;42.40;;;;;;5054971;28;20294;-63
2024/03/03 00:31:43;;;;;;;;;;;22.90;42.30;;;;;;5054998;28;19931;-63
2024/03/03 00:34:10;;;;;;;;;;;22.90;42.30;;;;;;5055046;28;19970;-63
2024/03/03 00:36:37;;;;;;;;;;;22.90;42.40;;;;;;5054963;28;20618;-63
2024/03/03 00:39:04;;;;;;;;;;;22.90;42.40;;;;;;5054846;28;20310;-63
2024/03/03 00:41:31;;;;;;;;;;;22.90;42.40;;;;;;5054736;28;19970;-63
2024/03/03 00:43:58;;;;;;;;;;;22.90;42.40;;;;;;5054423;28;19931;-63
2024/03/03 00:46:24;;;;;;;;;;;22.90;42.40;;;;;;5054786;28;19925;-63
2024/03/03 00:48:51;;;;;;;;;;;22.80;42.40;;;;;;5054915;28;20023;-64
2024/03/03 00:51:18;;;;;;;;;;;22.80;42.50;;;;;;5054852;28;19925;-63
2024/03/03 00:53:45;;;;;;;;;;;22.80;42.50;;;;;;5054657;28;20024;-63
2024/03/03 00:56:12;;;;;;;;;;;22.80;42.50;;;;;;5054946;28;20260;-63
2024/03/03 00:58:39;;;;;;;;;;;22.80;42.60;;;;;;5054716;28;19955;-63
2024/03/03 01:01:06;;;;;;;;;;;22.90;42.70;;;;;;5053310;28;20453;-64
2024/03/03 01:03:33;;;;;;;;;;;22.80;42.60;;;;;;5054429;28;20333;-63
2024/03/03 01:06:00;;;;;;;;;;;22.80;42.50;;;;;;5054144;28;19925;-64
2024/03/03 01:08:27;;;;;;;;;;;22.90;42.50;;;;;;5054277;28;19972;-63
2024/03/03 01:10:54;;;;;;;;;;;22.80;42.50;;;;;;5054234;28;20444;-63
2024/03/03 01:13:21;;;;;;;;;;;22.80;42.40;;;;;;5053143;28;19932;-63
2024/03/03 01:15:48;;;;;;;;;;;22.90;42.50;;;;;;5054325;28;19970;-63
2024/03/03 01:18:15;;;;;;;;;;;22.90;42.50;;;;;;5054164;28;19975;-63
2024/03/03 01:20:42;;;;;;;;;;;22.90;42.40;;;;;;5054158;28;19925;-63
2024/03/03 01:23:09;;;;;;;;;;;22.90;42.40;;;;;;5053866;28;19932;-64
2024/03/03 01:25:36;;;;;;;;;;;22.90;42.40;;;;;;5053744;28;20400;-63
2024/03/03 01:28:03;;;;;;;;;;;22.90;42.40;;;;;;5054263;28;19924;-63
2024/03/03 01:30:30;;;;;;;;;;;22.90;42.40;;;;;;5053577;28;19924;-63
2024/03/03 01:32:57;;;;;;;;;;;22.90;42.40;;;;;;5053728;28;20031;-63
2024/03/03 01:35:24;;;;;;;;;;;22.90;42.40;;;;;;5053993;28;19925;-63
2024/03/03 01:37:51;;;;;;;;;;;22.80;42.40;;;;;;5053996;28;19948;-63
2024/03/03 01:40:17;;;;;;;;;;;22.80;42.40;;;;;;5052833;28;20279;-63
2024/03/03 01:42:45;;;;;;;;;;;22.80;42.40;;;;;;5053904;28;19932;-63
2024/03/03 01:45:16;;;;;;;;;;;22.80;42.40;;;;;;5053740;28;20421;-63
2024/03/03 01:47:44;;;;;;;;;;;22.80;42.50;;;;;;5053793;28;19924;-63
2024/03/03 01:50:10;;;;;;;;;;;22.80;42.50;;;;;;5053148;28;19928;-64
2024/03/03 01:52:37;;;;;;;;;;;22.80;42.50;;;;;;5052569;28;19924;-63
2024/03/03 01:55:05;;;;;;;;;;;22.80;42.50;;;;;;5053589;28;19931;-64
2024/03/03 01:57:32;;;;;;;;;;;22.80;42.60;;;;;;5053892;28;19946;-63
2024/03/03 02:00:00;;;;;;;;;;;22.80;42.60;;;;;;5053526;28;20328;-63
2024/03/03 02:02:27;;;;;;;;;;;22.80;42.60;;;;;;5053488;28;19956;-63
2024/03/03 02:04:56;;;;;;;;;;;22.70;42.60;;;;;;5053521;28;19925;-63
2024/03/03 02:07:24;;;;;;;;;;;22.70;42.70;;;;;;5053280;28;20393;-63
2024/03/03 02:09:51;;;;;;;;;;;22.70;42.70;;;;;;5053517;28;19924;-63
2024/03/03 02:12:18;;;;;;;;;;;22.70;42.70;;;;;;5053363;28;19925;-63
2024/03/03 02:14:44;;;;;;;;;;;22.70;42.70;;;;;;5053502;28;19931;-63
2024/03/03 02:17:11;;;;;;;;;;;22.70;42.70;;;;;;5053212;28;19925;-64
2024/03/03 02:19:39;;;;;;;;;;;22.70;42.60;;;;;;5051880;28;19968;-63
2024/03/03 02:22:06;;;;;;;;;;;22.80;42.60;;;;;;5053208;28;19924;-66
2024/03/03 02:24:33;;;;;;;;;;;22.80;42.60;;;;;;5052798;28;19971;-63
2024/03/03 02:27:01;;;;;;;;;;;22.80;42.60;;;;;;5053346;28;20023;-63
2024/03/03 02:29:28;;;;;;;;;;;22.80;42.60;;;;;;5053316;28;19925;-63
2024/03/03 02:31:55;;;;;;;;;;;22.80;42.50;;;;;;5053059;28;20271;-63
2024/03/03 02:34:25;;;;;;;;;;;22.80;42.50;;;;;;5052841;28;20450;-64
2024/03/03 02:36:52;;;;;;;;;;;22.80;42.50;;;;;;5052908;28;19952;-63
2024/03/03 02:39:19;;;;;;;;;;;22.80;42.50;;;;;;5053073;28;19925;-63
2024/03/03 02:41:46;;;;;;;;;;;22.80;42.50;;;;;;5053128;28;19935;-63
2024/03/03 02:44:13;;;;;;;;;;;22.80;42.50;;;;;;5051668;28;19932;-64
2024/03/03 02:46:40;;;;;;;;;;;22.80;42.50;;;;;;5052653;28;19925;-65
2024/03/03 02:49:06;;;;;;;;;;;22.80;42.50;;;;;;5052688;28;19925;-67
2024/03/03 02:51:33;;;;;;;;;;;22.80;42.50;;;;;;5055719;28;19968;-67
2024/03/03 02:54:00;;;;;;;;;;;22.80;42.50;;;;;;5056633;28;20374;-65
2024/03/03 02:56:29;;;;;;;;;;;22.80;42.50;;;;;;5057082;28;19925;-67
2024/03/03 02:58:56;;;;;;;;;;;22.70;42.60;;;;;;5057211;28;19948;-64
2024/03/03 03:01:23;;;;;;;;;;;22.70;42.60;;;;;;5056238;28;19925;-65
2024/03/03 03:03:50;;;;;;;;;;;22.70;42.60;;;;;;5056765;28;20110;-66
2024/03/03 03:06:17;;;;;;;;;;;22.70;42.60;;;;;;5056925;28;20310;-68
2024/03/03 03:08:44;;;;;;;;;;;22.70;42.60;;;;;;5056758;28;19951;-67
2024/03/03 03:11:14;;;;;;;;;;;22.70;42.60;;;;;;5056279;28;19925;-64
2024/03/03 03:13:43;;;;;;;;;;;22.70;42.70;;;;;;5056749;28;19929;-63
2024/03/03 03:16:10;;;;;;;;;;;22.70;42.70;;;;;;5056664;28;19970;-64
2024/03/03 03:18:37;;;;;;;;;;;22.70;42.80;;;;;;5056626;28;19925;-63
2024/03/03 03:21:07;;;;;;;;;;;22.60;42.80;;;;;;5056122;28;19924;-63
2024/03/03 03:23:34;;;;;;;;;;;22.70;42.80;;;;;;5056114;28;19925;-63
2024/03/03 03:26:03;;;;;;;;;;;22.70;42.80;;;;;;5055552;28;21479;-63
2024/03/03 03:28:29;;;;;;;;;;;22.70;42.80;;;;;;5056085;28;19980;-63
2024/03/03 03:30:56;;;;;;;;;;;22.70;42.70;;;;;;5056140;28;19925;-63
2024/03/03 03:33:23;;;;;;;;;;;22.70;42.70;;;;;;5056102;28;19924;-64
2024/03/03 03:35:50;;;;;;;;;;;22.70;42.60;;;;;;5055840;28;20374;-63
2024/03/03 03:38:17;;;;;;;;;;;22.70;42.60;;;;;;5056311;28;20366;-63
2024/03/03 03:40:44;;;;;;;;;;;22.70;42.60;;;;;;5056154;28;19925;-63
2024/03/03 03:43:11;;;;;;;;;;;22.70;42.60;;;;;;5055944;28;20023;-63
2024/03/03 03:45:39;;;;;;;;;;;22.80;42.60;;;;;;5055720;28;19925;-63
2024/03/03 03:48:07;;;;;;;;;;;22.70;42.50;;;;;;5056026;28;20336;-63
2024/03/03 03:50:34;;;;;;;;;;;22.80;42.60;;;;;;5055941;28;20323;-63
2024/03/03 03:53:01;;;;;;;;;;;22.80;42.50;;;;;;5055966;28;19925;-63
2024/03/03 03:55:28;;;;;;;;;;;22.70;42.50;;;;;;5055614;28;20343;-63
2024/03/03 03:57:55;;;;;;;;;;;22.80;42.50;;;;;;5055676;28;19955;-63
2024/03/03 04:00:22;;;;;;;;;;;22.70;42.50;;;;;;5055730;28;20012;-64
2024/03/03 04:02:49;;;;;;;;;;;22.70;42.60;;;;;;5054890;28;19994;-63
2024/03/03 04:05:16;;;;;;;;;;;22.70;42.60;;;;;;5055570;28;20320;-63
2024/03/03 04:07:43;;;;;;;;;;;22.70;42.60;;;;;;5055515;28;20418;-63
2024/03/03 04:10:10;;;;;;;;;;;22.70;42.60;;;;;;5055454;28;20031;-64
2024/03/03 04:12:37;;;;;;;;;;;22.70;42.70;;;;;;5055634;28;19978;-63
2024/03/03 04:15:04;;;;;;;;;;;22.70;42.70;;;;;;5054921;28;19924;-63
2024/03/03 04:17:31;;;;;;;;;;;22.70;42.90;;;;;;5055645;28;19937;-64
2024/03/03 04:19:58;;;;;;;;;;;22.70;42.70;;;;;;5055209;28;20012;-63
2024/03/03 04:22:25;;;;;;;;;;;22.70;42.80;;;;;;5055112;28;20020;-63
2024/03/03 04:24:52;;;;;;;;;;;22.70;42.80;;;;;;5055367;28;19976;-64
2024/03/03 04:27:19;;;;;;;;;;;22.70;42.80;;;;;;5055349;28;19925;-63
2024/03/03 04:29:47;;;;;;;;;;;22.60;42.80;;;;;;5055185;28;20011;-63
2024/03/03 04:32:14;;;;;;;;;;;22.60;42.80;;;;;;5055164;28;20040;-63
2024/03/03 04:34:41;;;;;;;;;;;22.60;42.80;;;;;;5055109;28;19925;-63
2024/03/03 04:37:08;;;;;;;;;;;22.60;42.80;;;;;;5054850;28;20386;-63
2024/03/03 04:39:35;;;;;;;;;;;22.70;42.60;;;;;;5054828;28;19925;-63
2024/03/03 04:42:03;;;;;;;;;;;22.70;42.30;;;;;;5053920;28;19924;-63
2024/03/03 04:44:30;;;;;;;;;;;22.70;42.20;;;;;;5054359;28;19925;-64
2024/03/03 04:46:57;;;;;;;;;;;22.70;42.00;;;;;;5054927;28;20439;-63
2024/03/03 04:49:24;;;;;;;;;;;22.70;41.80;;;;;;5055019;28;20023;-63
2024/03/03 04:51:51;;;;;;;;;;;22.80;41.70;;;;;;5054662;28;20349;-63
2024/03/03 04:54:19;;;;;;;;;;;22.80;41.70;;;;;;5054137;28;19925;-63
2024/03/03 04:56:46;;;;;;;;;;;22.80;41.60;;;;;;5036953;28;19975;-63
2024/03/03 04:59:13;;;;;;;;;;;22.80;41.60;;;;;;5054414;28;19925;-63
2024/03/03 05:01:41;;;;;;;;;;;22.80;41.50;;;;;;5054845;28;19925;-64
2024/03/03 05:04:10;;;;;;;;;;;22.70;41.70;;;;;;5053878;28;20342;-63
2024/03/03 05:06:44;;;;;;;;;;;22.80;41.40;;;;;;5054118;28;19929;-63
2024/03/03 05:09:11;;;;;;;;;;;22.70;41.20;;;;;;5054258;28;19968;-63
2024/03/03 05:11:38;;;;;;;;;;;22.80;41.20;;;;;;5054503;28;19932;-64
2024/03/03 05:14:05;;;;;;;;;;;22.80;41.10;;;;;;5053237;28;19972;-63
2024/03/03 05:16:32;;;;;;;;;;;22.80;41.00;;;;;;5053909;28;20453;-63
2024/03/03 05:18:59;;;;;;;;;;;22.80;40.90;;;;;;5054217;28;20015;-64
2024/03/03 05:21:26;;;;;;;;;;;22.80;40.90;;;;;;5054023;28;19936;-63
2024/03/03 05:23:53;;;;;;;;;;;22.80;40.80;;;;;;5053918;28;19925;-63
2024/03/03 05:26:20;;;;;;;;;;;22.80;40.80;;;;;;5054068;28;20011;-63
2024/03/03 05:28:47;;;;;;;;;;;22.80;40.80;;;;;;5053861;28;19928;-63
2024/03/03 05:31:13;;;;;;;;;;;22.80;40.70;;;;;;5053672;28;19929;-63
2024/03/03 05:33:41;;;;;;;;;;;22.80;40.70;;;;;;5053819;28;19971;-64
2024/03/03 05:36:08;;;;;;;;;;;22.80;40.80;;;;;;5053920;28;19979;-63
2024/03/03 05:38:34;;;;;;;;;;;22.80;40.80;;;;;;5053529;28;19925;-63
2024/03/03 05:41:01;;;;;;;;;;;22.70;40.80;;;;;;5053602;28;20393;-63
2024/03/03 05:43:28;;;;;;;;;;;22.80;41.40;;;;;;5053687;28;20023;-63
2024/03/03 05:45:55;;;;;;;;;;;22.80;40.80;;;;;;5053716;28;19976;-63
2024/03/03 05:48:22;;;;;;;;;;;22.80;40.80;;;;;;5054017;28;19924;-63
2024/03/03 05:50:49;;;;;;;;;;;22.80;40.80;;;;;;5052736;28;19931;-64
2024/03/03 05:53:16;;;;;;;;;;;22.80;40.70;;;;;;5053327;28;20386;-63
2024/03/03 05:55:42;;;;;;;;;;;22.80;40.60;;;;;;5053264;28;19982;-64
2024/03/03 05:58:09;;;;;;;;;;;22.90;40.60;;;;;;5053439;28;19925;-63
2024/03/03 06:00:37;;;;;;;;;;;22.90;40.60;;;;;;5053370;28;20333;-63
2024/03/03 06:03:04;;;;;;;;;;;22.90;40.50;;;;;;5053232;28;19931;-63
2024/03/03 06:05:31;;;;;;;;;;;22.90;40.40;;;;;;5052425;28;19971;-63
2024/03/03 06:07:58;;;;;;;;;;;22.90;40.40;;;;;;5053563;28;19979;-63
2024/03/03 06:10:25;;;;;;;;;;;23.00;40.40;;;;;;5051751;28;20011;-63
2024/03/03 06:12:52;;;;;;;;;;;23.00;40.40;;;;;;5052991;28;20358;-64
2024/03/03 06:15:19;;;;;;;;;;;23.00;40.30;;;;;;5051750;28;19925;-63
2024/03/03 06:17:46;;;;;;;;;;;23.00;40.30;;;;;;5053541;28;19979;-64
2024/03/03 06:20:13;;;;;;;;;;;23.00;40.20;;;;;;5053066;28;20378;-63
2024/03/03 06:22:40;;;;;;;;;;;23.00;40.20;;;;;;5053258;28;20353;-63
2024/03/03 06:25:08;;;;;;;;;;;23.00;40.10;;;;;;5052468;28;19929;-63
2024/03/03 06:27:35;;;;;;;;;;;23.10;40.10;;;;;;5053012;28;19929;-63
2024/03/03 06:30:03;;;;;;;;;;;23.10;40.00;;;;;;5034976;28;20449;-63
2024/03/03 06:32:30;;;;;;;;;;;23.10;39.90;;;;;;5053219;28;19986;-63
2024/03/03 06:34:57;;;;;;;;;;;23.10;39.90;;;;;;5053026;28;20370;-63
2024/03/03 06:37:24;;;;;;;;;;;23.10;39.90;;;;;;5053197;28;20007;-63
2024/03/03 06:39:51;;;;;;;;;;;23.10;39.90;;;;;;5053180;28;19940;-63
2024/03/03 06:42:18;;;;;;;;;;;23.10;39.80;;;;;;5053306;28;19978;-63
2024/03/03 06:44:45;;;;;;;;;;;23.10;39.90;;;;;;5053058;28;19929;-63
2024/03/03 06:47:12;;;;;;;;;;;23.10;39.80;;;;;;5053124;28;19935;-63
2024/03/03 06:49:39;;;;;;;;;;;23.10;39.80;;;;;;5052746;28;19970;-63
2024/03/03 06:52:06;;;;;;;;;;;23.20;39.80;;;;;;5053070;28;19924;-63
2024/03/03 06:54:33;;;;;;;;;;;23.20;39.70;;;;;;5053331;28;20294;-63
2024/03/03 06:57:00;;;;;;;;;;;23.20;39.60;;;;;;5052739;28;20423;-63
2024/03/03 06:59:27;;;;;;;;;;;23.20;39.60;;;;;;5053062;28;19936;-63
2024/03/03 07:01:56;;;;;;;;;;;23.30;39.60;;;;;;5053123;28;19936;-63
2024/03/03 07:04:26;;;;;;;;;;;23.30;39.40;;;;;;5051621;28;19925;-63
2024/03/03 07:06:53;;;;;;;;;;;23.30;39.40;;;;;;5052477;28;20386;-64
2024/03/03 07:09:23;;;;;;;;;;;23.40;39.30;;;;;;5052330;28;19979;-63
2024/03/03 07:11:54;;;;;;;;;;;23.40;39.30;;;;;;5052723;28;19936;-63
2024/03/03 07:14:22;;;;;;;;;;;23.40;39.20;;;;;;5052889;28;19925;-63
2024/03/03 07:16:49;;;;;;;;;;;23.40;39.10;;;;;;5052781;28;20016;-63
2024/03/03 07:19:16;;;;;;;;;;;23.40;39.00;;;;;;5052266;28;19936;-63
2024/03/03 07:21:43;;;;;;;;;;;23.50;39.00;;;;;;5052756;28;19924;-64
2024/03/03 07:24:11;;;;;;;;;;;23.40;38.90;;;;;;5052631;28;19925;-63
2024/03/03 07:26:38;;;;;;;;;;;23.50;38.90;;;;;;5052238;28;19928;-63
2024/03/03 07:29:05;;;;;;;;;;;23.50;38.80;;;;;;5052715;28;19929;-63
2024/03/03 07:31:32;;;;;;;;;;;23.60;38.80;;;;;;5052102;28;20019;-63
2024/03/03 07:33:58;;;;;;;;;;;23.60;38.80;;;;;;5052182;28;20179;-64
2024/03/03 07:36:25;;;;;;;;;;;23.60;38.80;;;;;;5052707;28;19925;-63
2024/03/03 07:38:53;;;;;;;;;;;23.60;38.70;;;;;;5055271;28;20031;-63
2024/03/03 07:41:20;;;;;;;;;;;23.60;38.70;;;;;;5056129;28;19975;-63
2024/03/03 07:43:47;;;;;;;;;;;23.60;38.70;;;;;;5056259;28;20344;-63
2024/03/03 07:46:14;;;;;;;;;;;23.60;38.60;;;;;;5055817;28;20015;-63
2024/03/03 07:48:41;;;;;;;;;;;23.60;38.60;;;;;;5055980;28;19925;-63
2024/03/03 07:51:08;;;;;;;;;;;23.60;38.60;;;;;;5055965;28;19929;-63
2024/03/03 07:53:35;;;;;;;;;;;23.70;38.60;;;;;;5055756;28;19964;-63
2024/03/03 07:56:01;;;;;;;;;;;23.70;38.50;;;;;;5055716;28;19956;-64
2024/03/03 07:58:28;;;;;;;;;;;23.70;38.50;;;;;;5056062;28;19964;-63
2024/03/03 08:00:55;;;;;;;;;;;23.70;38.40;;;;;;5055648;28;20040;-63
2024/03/03 08:03:22;;;;;;;;;;;23.70;38.40;;;;;;5055906;28;19979;-63
2024/03/03 08:05:49;;;;;;;;;;;23.70;38.30;;;;;;5055200;28;20436;-63
2024/03/03 08:08:16;;;;;;;;;;;23.80;38.40;;;;;;5055670;28;19925;-63
2024/03/03 08:10:43;;;;;;;;;;;23.80;38.40;;;;;;5055250;28;19925;-63
2024/03/03 08:13:10;;;;;;;;;;;23.80;38.30;;;;;;5055715;28;20034;-63
2024/03/03 08:15:37;;;;;;;;;;;23.80;38.40;;;;;;5055457;28;20275;-63
2024/03/03 08:18:04;;;;;;;;;;;23.80;38.40;;;;;;5055744;28;19947;-64
2024/03/03 08:20:31;;;;;;;;;;;23.90;38.40;;;;;;5055192;28;19971;-63
2024/03/03 08:22:58;;;;;;;;;;;23.90;38.40;;;;;;5055147;28;20015;-63
2024/03/03 08:25:25;;;;;;;;;;;23.90;38.30;;;;;;5055315;28;19925;-63
2024/03/03 08:27:56;;;;;;;;;;;23.90;38.30;;;;;;5055591;28;20321;-63
2024/03/03 08:30:23;;;;;;;;;;;23.90;38.30;;;;;;5055087;28;19925;-63
2024/03/03 08:32:50;;;;;;;;;;;24.00;38.30;;;;;;5054720;28;20389;-63
2024/03/03 08:35:17;;;;;;;;;;;24.00;38.30;;;;;;5055228;28;20346;-63
2024/03/03 08:37:45;;;;;;;;;;;24.00;38.30;;;;;;5055153;28;19925;-63
2024/03/03 08:40:12;;;;;;;;;;;24.00;38.20;;;;;;5055304;28;19932;-64
2024/03/03 08:42:39;;;;;;;;;;;24.10;38.30;;;;;;5054908;28;19964;-63
2024/03/03 08:45:06;;;;;;;;;;;24.10;38.20;;;;;;5054533;28;20297;-63
2024/03/03 08:47:33;;;;;;;;;;;24.10;38.10;;;;;;5054898;28;19925;-63
2024/03/03 08:50:01;;;;;;;;;;;24.10;38.10;;;;;;5054311;28;19929;-63
2024/03/03 08:52:27;;;;;;;;;;;24.10;38.00;;;;;;5054674;28;19931;-63
2024/03/03 08:54:54;;;;;;;;;;;24.10;38.00;;;;;;5037307;28;19962;-63
2024/03/03 08:57:23;;;;;;;;;;;24.20;38.10;;;;;;5054356;28;19931;-63
2024/03/03 08:59:51;;;;;;;;;;;24.20;38.00;;;;;;5054936;28;19935;-63
2024/03/03 09:02:18;;;;;;;;;;;24.20;38.00;;;;;;5055045;28;19929;-63
2024/03/03 09:04:45;;;;;;;;;;;24.20;38.00;;;;;;5054377;28;19929;-63
2024/03/03 09:07:12;;;;;;;;;;;24.20;37.90;;;;;;5054447;28;19979;-64
2024/03/03 09:09:39;;;;;;;;;;;24.20;37.90;;;;;;5054642;28;19932;-63
2024/03/03 09:12:09;;;;;;;;;;;24.30;38.00;;;;;;5054281;28;19932;-63
2024/03/03 09:14:37;;;;;;;;;;;24.30;37.90;;;;;;5054245;28;20015;-63
2024/03/03 09:17:03;;;;;;;;;;;24.30;37.90;;;;;;5053924;28;19925;-63
2024/03/03 09:19:30;;;;;;;;;;;24.30;37.80;;;;;;5054506;28;19924;-63
2024/03/03 09:21:57;;;;;;;;;;;24.30;37.90;;;;;;5054244;28;19928;-63
2024/03/03 09:24:25;;;;;;;;;;;24.30;37.80;;;;;;5054123;28;19978;-63
2024/03/03 09:26:52;;;;;;;;;;;24.40;37.80;;;;;;5053862;28;20417;-63
2024/03/03 09:29:19;;;;;;;;;;;24.40;37.80;;;;;;5054130;28;19975;-63
2024/03/03 09:31:54;;;;;;;;;;;24.40;37.80;;;;;;5053946;28;19924;-63
2024/03/03 09:34:22;;;;;;;;;;;24.40;37.70;;;;;;5054081;28;19925;-63
2024/03/03 09:36:49;;;;;;;;;;;24.40;37.70;;;;;;5053604;28;19948;-63
2024/03/03 09:39:16;;;;;;;;;;;24.50;37.70;;;;;;5053755;28;19933;-64
2024/03/03 09:41:49;;;;;;;;;;;24.50;37.70;;;;;;5053719;28;19925;-63
2024/03/03 09:44:17;;;;;;;;;;;24.50;37.60;;;;;;5053139;28;19924;-63
2024/03/03 09:46:46;;;;;;;;;;;24.50;37.60;;;;;;5053880;28;19968;-63
2024/03/03 09:49:16;;;;;;;;;;;24.50;37.60;;;;;;5053841;28;20019;-63
2024/03/03 09:51:44;;;;;;;;;;;24.50;37.60;;;;;;5052393;28;20361;-63
2024/03/03 09:54:16;;;;;;;;;;;24.60;37.60;;;;;;5053467;28;20294;-63
2024/03/03 09:56:46;;;;;;;;;;;24.50;37.50;;;;;;5053622;28;20340;-63
2024/03/03 09:59:14;;;;;;;;;;;24.60;37.60;;;;;;5053228;28;19994;-63
2024/03/03 10:01:44;;;;;;;;;;;24.60;37.50;;;;;;5053280;28;20021;-63
2024/03/03 10:04:11;;;;;;;;;;;24.60;37.50;;;;;;5053314;28;20391;-63
2024/03/03 10:06:40;;;;;;;;;;;24.60;37.50;;;;;;5053525;28;19971;-63
2024/03/03 10:09:12;;;;;;;;;;;24.70;37.50;;;;;;5053501;28;20345;-63
2024/03/03 10:11:40;;;;;;;;;;;24.60;37.50;;;;;;5053521;28;19931;-63
2024/03/03 10:14:10;;;;;;;;;;;24.70;37.50;;;;;;5053046;28;19925;-63
2024/03/03 10:16:37;;;;;;;;;;;24.70;37.40;;;;;;5053233;28;19932;-63
2024/03/03 10:19:05;;;;;;;;;;;24.70;37.40;;;;;;5052881;28;19925;-63
2024/03/03 10:21:34;;;;;;;;;;;24.70;37.40;;;;;;5053489;28;20285;-63
2024/03/03 10:24:17;;;;;;;;;;;24.70;37.30;;;;;;5053032;28;19925;-63
2024/03/03 10:26:49;;;;;;;;;;;24.80;37.30;;;;;;5052666;28;20015;-63
2024/03/03 10:29:16;;;;;;;;;;;24.70;37.20;;;;;;5053283;28;19933;-63
2024/03/03 10:31:43;;;;;;;;;;;24.80;37.30;;;;;;5053098;28;19931;-63
2024/03/03 10:34:10;;;;;;;;;;;24.80;37.30;;;;;;5052863;28;19929;-63
2024/03/03 10:36:37;;;;;;;;;;;24.80;37.20;;;;;;5052832;28;19925;-63
2024/03/03 10:39:05;;;;;;;;;;;24.80;37.10;;;;;;5052970;28;19925;-63
2024/03/03 10:41:32;;;;;;;;;;;24.80;37.10;;;;;;5051760;28;19968;-63
2024/03/03 10:44:01;;;;;;;;;;;24.80;37.00;;;;;;5053012;28;20378;-63
2024/03/03 10:46:28;;;;;;;;;;;24.90;36.90;;;;;;5053300;28;20013;-64
2024/03/03 10:48:55;;;;;;;;;;;24.90;36.90;;;;;;5052739;28;19928;-66
2024/03/03 10:51:22;;;;;;;;;;;24.90;36.90;;;;;;5053099;28;19925;-65
2024/03/03 10:53:50;;;;;;;;;;;24.80;36.70;;;;;;5052776;28;19924;-68
2024/03/03 10:56:18;;;;;;;;;;;24.80;36.60;;;;;;5052862;28;19960;-63
2024/03/03 10:58:46;;;;;;;;;;;24.90;36.60;;;;;;5052802;28;20412;-66
2024/03/03 11:01:14;;;;;;;;;;;24.90;36.60;;;;;;5052741;28;20293;-68
2024/03/03 11:03:42;;;;;;;;;;;24.90;36.50;;;;;;5051898;28;19929;-65
2024/03/03 11:06:09;;;;;;;;;;;24.90;36.50;;;;;;5052879;28;20107;-67
2024/03/03 11:08:37;;;;;;;;;;;24.90;36.40;;;;;;5052761;28;19925;-66
2024/03/03 11:11:06;;;;;;;;;;;24.90;36.30;;;;;;5052840;28;19932;-64
2024/03/03 11:13:36;;;;;;;;;;;24.90;36.30;;;;;;5056488;28;20368;-64
2024/03/03 11:16:04;;;;;;;;;;;24.90;36.20;;;;;;5056150;28;19975;-63
2024/03/03 11:18:33;;;;;;;;;;;24.90;36.10;;;;;;5056456;28;19936;-63
2024/03/03 11:21:06;;;;;;;;;;;24.90;36.20;;;;;;5055456;28;20020;-63
2024/03/03 11:23:47;;;;;;;;;;;24.90;36.10;;;;;;5056389;28;20366;-63
2024/03/03 11:26:21;;;;;;;;;;;24.90;36.10;;;;;;5056415;28;19924;-63
2024/03/03 11:28:51;;;;;;;;;;;24.90;36.10;;;;;;5056258;28;19924;-63
2024/03/03 11:31:18;;;;;;;;;;;25.00;36.10;;;;;;5055983;28;19932;-63
2024/03/03 11:33:45;;;;;;;;;;;24.90;35.90;;;;;;5056289;28;19980;-63
2024/03/03 11:36:12;;;;;;;;;;;25.00;35.90;;;;;;5056154;28;19979;-63
2024/03/03 11:38:40;;;;;;;;;;;25.00;35.80;;;;;;5056324;28;19971;-64
2024/03/03 11:41:10;;;;;;;;;;;25.00;35.70;;;;;;5055897;28;19924;-63
2024/03/03 11:43:39;;;;;;;;;;;25.00;35.70;;;;;;5056110;28;20390;-63
2024/03/03 11:46:07;;;;;;;;;;;25.00;35.70;;;;;;5055735;28;20378;-63
2024/03/03 11:48:34;;;;;;;;;;;25.00;35.60;;;;;;5055897;28;19925;-63
2024/03/03 11:51:21;;;;;;;;;;;25.00;35.60;;;;;;5055966;28;19925;-63
2024/03/03 11:54:04;;;;;;;;;;;25.00;35.60;;;;;;5055197;28;20367;-63
2024/03/03 11:56:43;;;;;;;;;;;25.10;35.60;;;;;;5055712;28;19967;-63
2024/03/03 11:59:09;;;;;;;;;;;25.10;35.50;;;;;;5055758;28;19925;-63
2024/03/03 12:01:38;;;;;;;;;;;25.10;35.50;;;;;;5055961;28;19976;-63
2024/03/03 12:04:05;;;;;;;;;;;25.10;35.40;;;;;;5055799;28;19925;-63
2024/03/03 12:06:32;;;;;;;;;;;25.10;35.30;;;;;;5055367;28;20047;-63
2024/03/03 12:09:01;;;;;;;;;;;25.10;35.30;;;;;;5055408;28;19979;-63
2024/03/03 12:11:28;;;;;;;;;;;25.10;35.30;;;;;;5055016;28;19932;-63
2024/03/03 12:13:56;;;;;;;;;;;25.20;35.80;;;;;;5055499;28;20278;-63
2024/03/03 12:16:23;;;;;;;;;;;25.20;35.30;;;;;;5055412;28;20015;-63
2024/03/03 12:18:50;;;;;;;;;;;25.20;35.20;;;;;;5054638;28;19929;-63
2024/03/03 12:21:20;;;;;;;;;;;25.20;35.20;;;;;;5055532;28;20023;-63
2024/03/03 12:23:47;;;;;;;;;;;25.20;35.10;;;;;;5054451;28;19931;-64
2024/03/03 12:26:14;;;;;;;;;;;25.20;35.00;;;;;;5055489;28;19931;-63
2024/03/03 12:28:41;;;;;;;;;;;25.20;35.00;;;;;;5055207;28;19977;-63
2024/03/03 12:31:08;;;;;;;;;;;25.20;35.00;;;;;;5055040;28;19925;-63
2024/03/03 12:33:35;;;;;;;;;;;25.20;34.90;;;;;;5055266;28;20266;-63
2024/03/03 12:36:02;;;;;;;;;;;25.20;34.90;;;;;;5055016;28;19925;-63
2024/03/03 12:38:29;;;;;;;;;;;25.30;34.90;;;;;;5055298;28;20271;-63
2024/03/03 12:40:56;;;;;;;;;;;25.30;34.90;;;;;;5054702;28;19931;-63
2024/03/03 12:43:24;;;;;;;;;;;25.30;34.70;;;;;;5055191;28;19924;-63
2024/03/03 12:45:52;;;;;;;;;;;25.30;34.70;;;;;;5054455;28;19931;-63
2024/03/03 12:48:19;;;;;;;;;;;25.30;34.60;;;;;;5054958;28;20267;-63
2024/03/03 12:50:52;;;;;;;;;;;25.40;34.60;;;;;;5054387;28;19924;-63
2024/03/03 12:53:23;;;;;;;;;;;25.40;34.60;;;;;;5055144;28;19978;-63
2024/03/03 12:56:18;;;;;;;;;;;25.40;34.50;;;;;;5054426;28;19932;-63
2024/03/03 12:58:47;;;;;;;;;;;25.40;34.40;;;;;;5054823;28;20301;-63
2024/03/03 13:01:15;;;;;;;;;;;25.40;34.40;;;;;;5054278;28;19959;-63
2024/03/03 13:03:46;;;;;;;;;;;25.40;34.40;;;;;;5054454;28;19948;-63
2024/03/03 13:06:14;;;;;;;;;;;25.40;34.40;;;;;;5054238;28;19932;-63
2024/03/03 13:08:41;;;;;;;;;;;25.40;34.40;;;;;;5054433;28;20027;-63
2024/03/03 13:11:09;;;;;;;;;;;25.40;34.40;;;;;;5054375;28;20334;-63
2024/03/03 13:13:37;;;;;;;;;;;25.30;34.20;;;;;;5054382;28;19963;-63
2024/03/03 13:16:04;;;;;;;;;;;25.40;34.30;;;;;;5054132;28;19931;-63
2024/03/03 13:18:31;;;;;;;;;;;25.40;34.30;;;;;;5036581;28;19936;-63
2024/03/03 13:21:07;;;;;;;;;;;25.40;34.30;;;;;;5054039;28;20328;-63
2024/03/03 13:23:34;;;;;;;;;;;25.40;34.30;;;;;;5054074;28;20286;-63
2024/03/03 13:26:01;;;;;;;;;;;25.40;34.20;;;;;;5054333;28;19929;-63
2024/03/03 13:28:28;;;;;;;;;;;25.40;34.20;;;;;;5054347;28;19924;-63
2024/03/03 13:30:59;;;;;;;;;;;25.40;34.20;;;;;;5053731;28;19936;-63
2024/03/03 13:33:29;;;;;;;;;;;25.40;34.20;;;;;;5053989;28;20325;-63
2024/03/03 13:35:57;;;;;;;;;;;25.40;34.20;;;;;;5052792;28;20019;-63
2024/03/03 13:38:24;;;;;;;;;;;25.40;34.20;;;;;;5053764;28;19924;-63
2024/03/03 13:40:51;;;;;;;;;;;25.30;34.20;;;;;;5053529;28;20008;-63
2024/03/03 13:43:18;;;;;;;;;;;25.40;34.20;;;;;;5054187;28;19972;-63
2024/03/03 13:45:46;;;;;;;;;;;25.40;34.20;;;;;;5053840;28;19932;-63
2024/03/03 13:48:13;;;;;;;;;;;25.40;34.20;;;;;;5053300;28;19960;-63
2024/03/03 13:50:40;;;;;;;;;;;25.40;34.10;;;;;;5053675;28;19925;-63
2024/03/03 13:53:11;;;;;;;;;;;25.40;34.10;;;;;;5053912;28;19933;-63
2024/03/03 13:55:37;;;;;;;;;;;25.40;34.10;;;;;;5053709;28;19932;-63
2024/03/03 13:58:04;;;;;;;;;;;25.40;34.00;;;;;;5053795;28;19956;-63
2024/03/03 14:00:31;;;;;;;;;;;25.40;34.00;;;;;;5053880;28;19933;-63
2024/03/03 14:02:58;;;;;;;;;;;25.40;33.90;;;;;;5053553;28;19931;-64
2024/03/03 14:05:30;;;;;;;;;;;25.40;33.90;;;;;;5053341;28;19979;-63
2024/03/03 14:07:57;;;;;;;;;;;25.40;33.90;;;;;;5053884;28;19925;-63
2024/03/03 14:10:25;;;;;;;;;;;25.40;33.90;;;;;;5053328;28;19960;-64
2024/03/03 14:12:53;;;;;;;;;;;25.40;33.90;;;;;;5053593;28;19943;-63
2024/03/03 14:15:21;;;;;;;;;;;25.40;33.90;;;;;;5053278;28;19947;-63
2024/03/03 14:17:48;;;;;;;;;;;25.40;33.80;;;;;;5053009;28;19932;-63
2024/03/03 14:20:16;;;;;;;;;;;25.40;33.70;;;;;;5053647;28;20356;-63